Time;durP1;ratioP1;P1;durP2;ratioP2;P2;SDS_P1;SDS_P2;PMS_P1;PMS_P2;Temp;Humidity;BMP_temperature;BMP_pressure;BME280_temperature;BME280_humidity;BME280_pressure;Samples;Min_cycle;Max_cycle;Signal;HPM_P1;HPM_P2
2023/05/12 00:02:11;;;;;;;16.77;15.20;;;;;;;9.47;88.03;93011.72;5070414;28;20189;-70
2023/05/12 00:04:39;;;;;;;16.40;14.97;;;;;;;9.47;87.66;93006.50;5069692;28;20208;-69
2023/05/12 00:07:05;;;;;;;17.97;16.27;;;;;;;9.43;87.37;93006.25;5070021;28;20245;-70
2023/05/12 00:09:31;;;;;;;16.37;14.87;;;;;;;9.49;87.33;93015.63;5070099;28;20181;-69
2023/05/12 00:11:57;;;;;;;15.67;14.37;;;;;;;9.36;87.54;93000.53;5070080;28;20181;-70
2023/05/12 00:14:22;;;;;;;16.93;15.50;;;;;;;9.37;87.53;93004.69;5069594;28;20185;-70
2023/05/12 00:16:50;;;;;;;16.33;14.93;;;;;;;9.32;87.88;93016.94;5069760;28;20188;-69
2023/05/12 00:19:19;;;;;;;15.80;14.43;;;;;;;9.33;88.32;93015.88;5052563;28;20190;-70
2023/05/12 00:21:45;;;;;;;17.00;15.50;;;;;;;9.29;87.79;93014.84;5068959;28;20213;-69
2023/05/12 00:24:10;;;;;;;17.70;16.03;;;;;;;9.07;89.44;92996.09;5069291;28;20193;-69
2023/05/12 00:26:36;;;;;;;16.97;15.50;;;;;;;9.13;90.38;93016.66;5069133;28;20224;-69
2023/05/12 00:29:01;;;;;;;16.93;15.63;;;;;;;9.21;90.20;93013.53;5069994;28;20197;-69
2023/05/12 00:31:28;;;;;;;18.27;16.57;;;;;;;9.04;91.03;92986.19;5069425;28;20285;-69
2023/05/12 00:33:54;;;;;;;18.00;16.30;;;;;;;9.05;91.59;93019.00;5069671;28;20177;-69
2023/05/12 00:36:19;;;;;;;16.50;15.10;;;;;;;8.94;92.63;93017.41;5069348;28;20649;-69
2023/05/12 00:38:45;;;;;;;16.97;15.47;;;;;;;8.98;92.72;92992.44;5069798;28;20204;-69
2023/05/12 00:41:10;;;;;;;18.90;17.07;;;;;;;9.00;93.09;93021.59;5069440;28;20243;-69
2023/05/12 00:43:36;;;;;;;17.50;15.80;;;;;;;8.90;94.06;93022.34;5069569;28;20182;-70
2023/05/12 00:46:04;;;;;;;17.20;15.70;;;;;;;8.79;95.38;93025.19;5069244;28;20217;-69
2023/05/12 00:48:30;;;;;;;17.23;15.53;;;;;;;8.74;96.50;93001.75;5069369;28;20188;-69
2023/05/12 00:50:57;;;;;;;17.13;15.57;;;;;;;8.73;96.84;93018.41;5069110;28;20243;-70
2023/05/12 00:53:23;;;;;;;15.40;14.10;;;;;;;8.72;96.83;93019.44;5069403;28;20178;-69
2023/05/12 00:55:48;;;;;;;16.67;15.23;;;;;;;8.59;97.64;93019.94;5069206;28;20213;-69
2023/05/12 00:58:14;;;;;;;18.03;16.27;;;;;;;8.50;99.26;93021.47;5069292;28;20278;-69
2023/05/12 01:00:39;;;;;;;17.30;15.70;;;;;;;8.47;99.64;93022.75;5068812;28;20317;-69
2023/05/12 01:03:04;;;;;;;17.13;15.17;;;;;;;8.35;100.00;93017.00;5069880;28;20189;-70
2023/05/12 01:05:46;;;;;;;16.67;15.17;;;;;;;8.48;100.00;93021.75;5081782;28;20279;-69
2023/05/12 01:08:12;;;;;;;16.67;15.17;;;;;;;8.28;100.00;93016.44;5069671;28;20181;-69
2023/05/12 01:10:43;;;;;;;17.30;15.67;;;;;;;8.29;100.00;93019.81;5069452;28;20266;-68
2023/05/12 01:13:08;;;;;;;17.63;16.03;;;;;;;8.24;100.00;93020.59;5069281;28;20204;-69
2023/05/12 01:15:36;;;;;;;18.17;16.63;;;;;;;8.11;100.00;93016.59;5067972;28;20221;-69
2023/05/12 01:18:04;;;;;;;16.70;15.23;;;;;;;8.26;100.00;93015.94;5068837;28;20230;-70
2023/05/12 01:20:31;;;;;;;18.03;16.50;;;;;;;8.09;100.00;93010.09;5068760;28;20225;-70
2023/05/12 01:22:58;;;;;;;17.63;15.97;;;;;;;8.17;100.00;93022.63;5068900;28;20249;-71
2023/05/12 01:25:25;;;;;;;16.97;15.40;;;;;;;8.13;100.00;93014.53;5087041;28;20235;-69
2023/05/12 01:27:52;;;;;;;16.63;14.97;;;;;;;8.16;100.00;93027.03;5091980;28;20197;-70
2023/05/12 01:30:19;;;;;;;17.67;16.07;;;;;;;8.10;100.00;93017.66;5080762;28;20229;-71
2023/05/12 01:32:44;;;;;;;16.47;15.17;;;;;;;8.15;100.00;93020.25;5069202;28;20188;-69
2023/05/12 01:35:10;;;;;;;15.80;14.50;;;;;;;8.17;100.00;93017.44;5052189;28;20233;-69
2023/05/12 01:37:36;;;;;;;17.13;15.73;;;;;;;8.06;100.00;93008.78;5072760;28;20243;-69
2023/05/12 01:40:01;;;;;;;17.10;15.33;;;;;;;8.07;100.00;93009.56;5072977;28;20236;-70
2023/05/12 01:42:27;;;;;;;17.07;15.67;;;;;;;8.04;100.00;93008.25;5072773;28;20186;-69
2023/05/12 01:44:52;;;;;;;17.50;16.10;;;;;;;8.03;100.00;93011.13;5072539;28;20225;-69
2023/05/12 01:47:18;;;;;;;16.47;14.93;;;;;;;8.02;100.00;93012.91;5072577;28;20205;-70
2023/05/12 01:49:44;;;;;;;15.67;14.40;;;;;;;7.74;100.00;92963.91;5072167;28;20251;-69
2023/05/12 01:52:09;;;;;;;14.43;13.23;;;;;;;8.17;100.00;93012.97;5072736;28;20185;-70
2023/05/12 01:54:35;;;;;;;15.23;13.97;;;;;;;7.95;100.00;92972.59;5072438;28;20220;-68
2023/05/12 01:57:01;;;;;;;15.43;13.93;;;;;;;8.09;100.00;93005.66;5054820;28;20388;-70
2023/05/12 01:59:26;;;;;;;15.13;13.83;;;;;;;8.12;100.00;93002.56;5072290;28;20192;-70
2023/05/12 02:01:51;;;;;;;15.23;14.03;;;;;;;8.14;100.00;93010.09;5072193;28;20184;-69
2023/05/12 02:04:17;;;;;;;15.13;13.83;;;;;;;7.99;100.00;92991.84;5054845;28;20194;-69
2023/05/12 02:06:42;;;;;;;14.53;13.33;;;;;;;8.15;100.00;93007.25;5054024;28;20284;-70
2023/05/12 02:09:08;;;;;;;13.93;12.83;;;;;;;8.14;100.00;93010.91;5072992;28;20232;-70
2023/05/12 02:11:33;;;;;;;13.70;12.70;;;;;;;8.14;100.00;93000.50;5071859;28;20217;-69
2023/05/12 02:13:58;;;;;;;13.70;12.70;;;;;;;8.18;100.00;93006.75;5072181;28;20202;-69
2023/05/12 02:16:24;;;;;;;14.40;13.40;;;;;;;8.21;100.00;93008.06;5071327;28;20225;-69
2023/05/12 02:18:49;;;;;;;13.53;12.63;;;;;;;8.14;100.00;92984.88;5071964;28;20233;-70
2023/05/12 02:21:15;;;;;;;13.60;12.53;;;;;;;8.16;100.00;93006.22;5071781;28;20259;-71
2023/05/12 02:23:40;;;;;;;13.63;12.63;;;;;;;7.97;100.00;93004.31;5072290;28;20216;-70
2023/05/12 02:26:05;;;;;;;12.20;11.30;;;;;;;7.87;100.00;92975.66;5071264;28;20233;-70
2023/05/12 02:28:32;;;;;;;13.77;12.77;;;;;;;8.09;100.00;93010.88;5072052;28;20197;-69
2023/05/12 02:30:58;;;;;;;14.53;13.43;;;;;;;8.25;100.00;93008.38;5071206;28;20228;-70
2023/05/12 02:33:23;;;;;;;14.00;12.90;;;;;;;8.22;100.00;93003.66;5071986;28;20189;-70
2023/05/12 02:35:49;;;;;;;13.27;12.27;;;;;;;8.25;100.00;93005.78;5070848;28;20221;-70
2023/05/12 02:38:14;;;;;;;13.20;12.20;;;;;;;8.18;100.00;92998.97;5071883;28;20247;-69
2023/05/12 02:40:41;;;;;;;13.90;12.90;;;;;;;8.24;100.00;93001.59;5071297;28;21917;-69
2023/05/12 02:43:06;;;;;;;12.30;11.50;;;;;;;8.08;100.00;93003.31;5071922;28;20249;-70
2023/05/12 02:45:31;;;;;;;12.53;11.60;;;;;;;7.99;100.00;93005.63;5070447;28;20764;-70
2023/05/12 02:47:57;;;;;;;12.43;11.57;;;;;;;7.86;100.00;93010.50;5070621;28;20193;-70
2023/05/12 02:50:22;;;;;;;12.83;11.93;;;;;;;7.72;100.00;93002.34;5070940;28;20228;-69
2023/05/12 02:52:48;;;;;;;12.93;12.03;;;;;;;7.59;100.00;93005.41;5071476;28;20185;-71
2023/05/12 02:55:14;;;;;;;15.93;12.70;;;;;;;7.56;100.00;93000.72;5071152;28;20244;-69
2023/05/12 02:57:39;;;;;;;13.33;12.23;;;;;;;7.38;100.00;92995.09;5071382;28;20225;-69
2023/05/12 03:00:06;;;;;;;13.83;12.77;;;;;;;7.45;100.00;93008.69;5070966;28;20236;-69
2023/05/12 03:02:36;;;;;;;13.43;12.43;;;;;;;7.36;100.00;92995.34;5071188;28;20157;-70
2023/05/12 03:05:02;;;;;;;14.97;13.33;;;;;;;7.17;100.00;92983.81;5070651;28;20213;-69
2023/05/12 03:07:28;;;;;;;15.10;13.80;;;;;;;7.21;100.00;92986.66;5064231;28;20248;-70
2023/05/12 03:09:53;;;;;;;13.73;12.47;;;;;;;7.24;100.00;93002.53;5070751;28;20230;-70
2023/05/12 03:12:19;;;;;;;13.37;12.37;;;;;;;7.24;100.00;93002.53;5071278;28;20253;-69
2023/05/12 03:14:44;;;;;;;15.23;13.90;;;;;;;7.15;100.00;92996.25;5056796;28;20217;-68
2023/05/12 03:17:10;;;;;;;12.90;11.90;;;;;;;7.11;100.00;93012.56;5071123;28;20189;-69
2023/05/12 03:19:35;;;;;;;13.50;12.60;;;;;;;7.13;100.00;93019.06;5070173;28;20205;-69
2023/05/12 03:22:02;;;;;;;12.30;11.33;;;;;;;7.19;100.00;93015.47;5071227;28;20182;-70
2023/05/12 03:24:27;;;;;;;12.90;12.07;;;;;;;7.16;100.00;93034.16;5070151;28;20209;-70
2023/05/12 03:26:53;;;;;;;12.40;11.47;;;;;;;7.26;100.00;93039.44;5070862;28;20178;-70
2023/05/12 03:29:19;;;;;;;14.27;13.07;;;;;;;7.14;100.00;93018.06;5069174;28;20192;-69
2023/05/12 03:31:45;;;;;;;13.33;12.23;;;;;;;7.29;100.00;93027.75;5069910;28;20196;-74
2023/05/12 03:34:10;;;;;;;13.07;12.07;;;;;;;7.31;100.00;93034.28;5070276;28;20248;-76
2023/05/12 03:36:36;;;;;;;12.70;11.80;;;;;;;7.37;100.00;93043.69;5052763;28;20212;-75
2023/05/12 03:39:02;;;;;;;13.07;12.13;;;;;;;7.43;100.00;93032.31;5070665;28;20231;-75
2023/05/12 03:41:27;;;;;;;14.60;13.30;;;;;;;7.27;100.00;93015.03;5052445;28;20232;-75
2023/05/12 03:43:53;;;;;;;14.07;12.87;;;;;;;7.39;100.00;93020.06;5070163;28;20182;-75
2023/05/12 03:46:18;;;;;;;12.70;11.60;;;;;;;7.39;100.00;93039.00;5069965;28;20213;-70
2023/05/12 03:48:44;;;;;;;12.87;11.97;;;;;;;7.24;100.00;93015.53;5064128;28;20181;-70
2023/05/12 03:51:09;;;;;;;14.50;13.23;;;;;;;7.31;100.00;93033.50;5066869;28;20225;-69
2023/05/12 03:53:34;;;;;;;13.53;12.53;;;;;;;7.40;100.00;93040.59;5069116;28;20189;-69
2023/05/12 03:56:06;;;;;;;14.50;13.40;;;;;;;7.43;100.00;93041.91;5068918;28;20236;-71
2023/05/12 03:58:32;;;;;;;14.47;13.27;;;;;;;7.38;100.00;93039.25;5068969;28;21001;-70
2023/05/12 04:00:57;;;;;;;13.27;12.27;;;;;;;7.31;100.00;93010.13;5068301;28;20228;-69
2023/05/12 04:03:23;;;;;;;14.53;13.43;;;;;;;7.55;100.00;93045.09;5068623;28;20192;-69
2023/05/12 04:05:48;;;;;;;13.47;12.37;;;;;;;7.59;100.00;93046.97;5068487;28;20229;-69
2023/05/12 04:08:14;;;;;;;12.57;11.57;;;;;;;7.61;100.00;93050.09;5068563;28;20277;-70
2023/05/12 04:10:40;;;;;;;13.00;12.07;;;;;;;7.62;100.00;93051.66;5068297;28;20217;-70
2023/05/12 04:13:06;;;;;;;14.10;12.90;;;;;;;7.71;100.00;93054.56;5068474;28;20185;-70
2023/05/12 04:15:35;;;;;;;13.27;12.20;;;;;;;7.78;100.00;93060.34;5068101;28;20241;-67
2023/05/12 04:18:01;;;;;;;13.27;12.37;;;;;;;7.66;100.00;93042.34;5067838;28;20208;-68
2023/05/12 04:20:27;;;;;;;13.20;12.20;;;;;;;7.75;100.00;93056.41;5067958;28;20221;-73
2023/05/12 04:22:52;;;;;;;13.90;12.90;;;;;;;7.77;100.00;93062.16;5067869;28;20193;-69
2023/05/12 04:25:18;;;;;;;13.37;12.40;;;;;;;7.87;100.00;93059.63;5067640;28;20250;-71
2023/05/12 04:27:43;;;;;;;12.70;11.90;;;;;;;7.93;100.00;93052.66;5067569;28;20197;-71
2023/05/12 04:30:08;;;;;;;12.60;11.70;;;;;;;7.97;100.00;93061.50;5067608;28;20284;-69
2023/05/12 04:32:35;;;;;;;12.50;11.57;;;;;;;7.88;100.00;93050.81;5068235;28;20180;-72
2023/05/12 04:35:00;;;;;;;12.80;11.90;;;;;;;7.84;100.00;93043.75;5067588;28;20237;-75
2023/05/12 04:37:26;;;;;;;13.57;12.47;;;;;;;7.92;100.00;93051.09;5063085;28;20204;-74
2023/05/12 04:39:51;;;;;;;13.07;11.97;;;;;;;7.77;100.00;93049.16;5068533;28;20237;-74
2023/05/12 04:42:17;;;;;;;13.10;12.27;;;;;;;7.87;100.00;93049.25;5069832;28;20207;-74
2023/05/12 04:44:44;;;;;;;14.17;13.17;;;;;;;8.00;100.00;93053.19;5069045;28;20255;-74
2023/05/12 04:47:10;;;;;;;12.53;11.63;;;;;;;7.87;100.00;93036.25;5069798;28;20248;-74
2023/05/12 04:49:35;;;;;;;13.93;12.83;;;;;;;7.86;100.00;93054.69;5068914;28;20192;-75
2023/05/12 04:52:01;;;;;;;13.73;12.37;;;;;;;7.91;100.00;93049.50;5069759;28;20196;-74
2023/05/12 04:54:26;;;;;;;12.90;11.90;;;;;;;7.97;100.00;93054.47;5069090;28;20177;-74
2023/05/12 04:56:52;;;;;;;13.13;12.23;;;;;;;7.99;100.00;93057.63;5068507;28;20196;-74
2023/05/12 04:59:17;;;;;;;13.30;12.33;;;;;;;7.94;100.00;93055.00;5068580;28;20209;-75
2023/05/12 05:01:43;;;;;;;14.37;13.20;;;;;;;7.89;100.00;93054.94;5069069;28;20267;-75
2023/05/12 05:04:08;;;;;;;12.20;11.23;;;;;;;7.53;100.00;93014.16;5051693;28;20185;-74
2023/05/12 05:06:33;;;;;;;13.37;12.23;;;;;;;7.87;100.00;93064.84;5068700;28;20229;-75
2023/05/12 05:08:59;;;;;;;13.83;12.83;;;;;;;7.89;100.00;93067.94;5069490;28;20185;-75
2023/05/12 05:11:25;;;;;;;13.33;12.33;;;;;;;7.83;100.00;93052.56;5072256;28;20225;-74
2023/05/12 05:13:50;;;;;;;13.30;12.30;;;;;;;7.90;100.00;93066.16;5073276;28;20189;-74
2023/05/12 05:16:16;;;;;;;13.23;12.10;;;;;;;7.79;100.00;93057.50;5072783;28;20247;-74
2023/05/12 05:18:45;;;;;;;12.80;11.90;;;;;;;7.93;100.00;93066.44;5073290;28;20213;-74
2023/05/12 05:21:12;;;;;;;13.33;12.33;;;;;;;8.01;100.00;93071.16;5072314;28;20305;-74
2023/05/12 05:23:38;;;;;;;14.03;13.00;;;;;;;8.01;100.00;93059.97;5073358;28;20193;-74
2023/05/12 05:26:03;;;;;;;14.33;13.13;;;;;;;8.19;100.00;93075.94;5072413;28;20232;-74
2023/05/12 05:28:29;;;;;;;14.10;12.90;;;;;;;8.12;100.00;93077.97;5073192;28;20177;-75
2023/05/12 05:30:55;;;;;;;14.63;13.33;;;;;;;8.20;100.00;93076.72;5072290;28;20232;-75
2023/05/12 05:33:20;;;;;;;13.47;12.47;;;;;;;8.03;100.00;93063.13;5073322;28;20762;-74
2023/05/12 05:35:46;;;;;;;13.97;12.97;;;;;;;8.07;100.00;93064.97;5071899;28;20236;-74
2023/05/12 05:38:12;;;;;;;14.67;13.37;;;;;;;8.03;100.00;93076.13;5072664;28;20251;-74
2023/05/12 05:40:37;;;;;;;15.00;13.80;;;;;;;7.99;100.00;93052.44;5054907;28;20229;-74
2023/05/12 05:43:03;;;;;;;13.40;12.20;;;;;;;8.16;100.00;93079.03;5072963;28;20268;-74
2023/05/12 05:45:28;;;;;;;16.07;14.57;;;;;;;8.19;100.00;93077.75;5072227;28;20224;-74
2023/05/12 05:47:54;;;;;;;14.40;13.17;;;;;;;8.18;100.00;93050.19;5072870;28;20181;-74
2023/05/12 05:50:19;;;;;;;14.27;13.13;;;;;;;8.31;100.00;93080.19;5054287;28;20221;-75
2023/05/12 05:52:44;;;;;;;14.40;13.10;;;;;;;8.28;100.00;93080.69;5072718;28;20185;-75
2023/05/12 05:55:10;;;;;;;14.67;13.37;;;;;;;8.39;100.00;93075.28;5072045;28;20308;-74
2023/05/12 05:57:35;;;;;;;14.60;13.40;;;;;;;8.00;100.00;93030.59;5072579;28;20296;-75
2023/05/12 06:00:03;;;;;;;16.03;14.63;;;;;;;8.45;100.00;93086.50;5072031;28;20244;-74
2023/05/12 06:02:30;;;;;;;15.07;13.67;;;;;;;8.48;100.00;93084.19;5072616;28;20821;-74
2023/05/12 06:04:56;;;;;;;15.67;14.30;;;;;;;8.55;100.00;93070.91;5071755;28;20230;-75
2023/05/12 06:07:21;;;;;;;15.37;14.07;;;;;;;8.62;100.00;93081.88;5072477;28;20193;-74
2023/05/12 06:09:47;;;;;;;15.17;13.83;;;;;;;8.68;100.00;93075.66;5072072;28;20221;-75
2023/05/12 06:12:12;;;;;;;15.70;14.20;;;;;;;8.78;100.00;93083.53;5072448;28;20212;-74
2023/05/12 06:14:38;;;;;;;14.63;13.40;;;;;;;8.87;100.00;93087.19;5071794;28;20221;-74
2023/05/12 06:17:03;;;;;;;17.07;15.47;;;;;;;8.94;100.00;93096.31;5054543;28;20249;-74
2023/05/12 06:19:29;;;;;;;16.13;14.67;;;;;;;9.04;100.00;93100.78;5071597;28;20221;-74
2023/05/12 06:21:54;;;;;;;16.63;14.90;;;;;;;8.87;100.00;93077.53;5070865;28;20173;-75
2023/05/12 06:24:19;;;;;;;16.60;14.93;;;;;;;9.01;99.03;93096.84;5071455;28;20185;-75
2023/05/12 06:26:45;;;;;;;14.63;13.30;;;;;;;8.88;99.70;93076.50;5071838;28;20196;-74
2023/05/12 06:29:10;;;;;;;16.73;15.03;;;;;;;9.17;99.83;93102.88;5071713;28;20189;-74
2023/05/12 06:31:35;;;;;;;16.10;14.67;;;;;;;9.22;99.20;93108.09;5071270;28;20251;-75
2023/05/12 06:34:01;;;;;;;15.60;14.10;;;;;;;9.21;99.04;93096.13;5071702;28;20189;-75
2023/05/12 06:36:28;;;;;;;16.17;14.67;;;;;;;9.18;99.07;93101.84;5069401;28;20213;-74
2023/05/12 06:38:54;;;;;;;16.10;14.73;;;;;;;9.22;99.39;93113.31;5071649;28;20205;-74
2023/05/12 06:41:20;;;;;;;15.40;14.00;;;;;;;9.19;99.28;93114.63;5071351;28;20255;-74
2023/05/12 06:43:46;;;;;;;16.67;15.17;;;;;;;9.17;98.81;93095.06;5072269;28;20276;-74
2023/05/12 06:46:11;;;;;;;14.17;12.97;;;;;;;9.33;97.59;93120.09;5071251;28;20225;-74
2023/05/12 06:48:37;;;;;;;16.47;14.83;;;;;;;9.40;97.75;93116.22;5071353;28;20188;-74
2023/05/12 06:51:03;;;;;;;14.70;13.40;;;;;;;9.47;98.14;93129.00;5070996;28;20221;-74
2023/05/12 06:53:28;;;;;;;15.93;14.37;;;;;;;9.47;97.58;93123.78;5071391;28;20190;-75
2023/05/12 06:55:54;;;;;;;15.83;14.50;;;;;;;9.29;97.30;93078.16;5070914;28;20224;-74
2023/05/12 06:58:20;;;;;;;17.67;15.97;;;;;;;9.54;96.54;93100.88;5071480;28;20209;-75
2023/05/12 07:00:46;;;;;;;16.70;15.30;;;;;;;9.53;97.11;93109.72;5070960;28;20221;-74
2023/05/12 07:03:12;;;;;;;15.13;13.73;;;;;;;9.63;97.11;93114.94;5071248;28;20209;-74
2023/05/12 07:05:37;;;;;;;15.57;14.07;;;;;;;9.62;96.11;93108.16;5053481;28;20214;-74
2023/05/12 07:08:03;;;;;;;15.30;13.80;;;;;;;9.62;95.66;93110.75;5070876;28;20193;-74
2023/05/12 07:10:28;;;;;;;15.37;13.97;;;;;;;9.61;96.80;93119.63;5071108;28;20225;-74
2023/05/12 07:12:53;;;;;;;16.30;14.63;;;;;;;9.60;97.05;93099.81;5071009;28;20209;-75
2023/05/12 07:15:19;;;;;;;15.33;13.90;;;;;;;9.75;96.90;93118.06;5070729;28;20223;-74
2023/05/12 07:17:44;;;;;;;16.03;14.60;;;;;;;9.77;95.66;93116.00;5071050;28;20217;-74
2023/05/12 07:20:10;;;;;;;15.80;14.50;;;;;;;9.80;95.60;93116.22;5070803;28;20221;-74
2023/05/12 07:22:36;;;;;;;16.50;15.13;;;;;;;9.74;96.27;93127.72;5071233;28;20244;-74
2023/05/12 07:25:01;;;;;;;16.10;14.50;;;;;;;9.88;94.40;93128.00;5070595;28;20217;-74
2023/05/12 07:27:27;;;;;;;16.03;14.57;;;;;;;9.87;95.21;93131.63;5071086;28;20189;-75
2023/05/12 07:29:53;;;;;;;15.73;14.37;;;;;;;9.93;94.92;93135.03;5070303;28;20217;-74
2023/05/12 07:32:18;;;;;;;15.87;14.17;;;;;;;9.88;94.86;93127.19;5070843;28;20185;-74
2023/05/12 07:34:44;;;;;;;16.20;14.77;;;;;;;10.05;93.92;93133.72;5049036;28;20245;-74
2023/05/12 07:37:09;;;;;;;16.77;14.23;;;;;;;10.00;93.69;93130.31;5050402;28;20213;-74
2023/05/12 07:39:34;;;;;;;16.17;14.67;;;;;;;9.96;93.20;93135.28;5050801;28;20198;-74
2023/05/12 07:42:00;;;;;;;16.20;14.63;;;;;;;10.01;93.13;93129.28;5050571;28;20185;-73
2023/05/12 07:44:26;;;;;;;18.47;15.97;;;;;;;10.04;93.25;93139.97;5050358;28;20173;-74
2023/05/12 07:46:52;;;;;;;17.53;15.97;;;;;;;10.00;92.97;93133.72;5050575;28;20223;-74
2023/05/12 07:49:17;;;;;;;19.13;15.53;;;;;;;10.16;93.73;93137.91;5050426;28;20250;-74
2023/05/12 07:51:42;;;;;;;16.67;14.27;;;;;;;10.39;92.61;93139.97;5050087;28;20289;-74
2023/05/12 07:54:08;;;;;;;15.50;14.07;;;;;;;10.45;92.19;93138.91;5049313;28;20197;-74
2023/05/12 07:56:34;;;;;;;15.17;13.73;;;;;;;10.60;90.10;93125.81;5049921;28;20217;-74
2023/05/12 07:58:59;;;;;;;15.77;14.17;;;;;;;11.00;89.88;93130.88;5050415;28;20212;-74
2023/05/12 08:01:25;;;;;;;15.30;14.00;;;;;;;11.18;88.10;93132.91;5049904;28;20233;-75
2023/05/12 08:03:50;;;;;;;14.47;13.27;;;;;;;11.50;86.86;93136.94;5049095;28;20190;-74
2023/05/12 08:06:17;;;;;;;16.93;15.10;;;;;;;11.56;86.12;93138.47;5049963;28;20222;-75
2023/05/12 08:08:42;;;;;;;16.47;14.97;;;;;;;11.65;85.23;93123.78;5048903;28;20190;-74
2023/05/12 08:11:08;;;;;;;14.77;13.50;;;;;;;11.87;84.86;93134.63;5049111;28;20248;-74
2023/05/12 08:13:35;;;;;;;14.67;13.33;;;;;;;12.12;83.71;93137.03;5049991;28;20211;-74
2023/05/12 08:16:01;;;;;;;14.17;12.97;;;;;;;12.24;81.24;93140.06;5049693;28;20214;-74
2023/05/12 08:18:26;;;;;;;13.07;11.97;;;;;;;12.29;80.58;93147.88;5049787;28;20210;-75
2023/05/12 08:20:52;;;;;;;14.67;13.17;;;;;;;11.98;82.35;93136.91;5049511;28;20222;-74
2023/05/12 08:23:17;;;;;;;14.03;12.87;;;;;;;11.93;83.39;93136.94;5049838;28;20190;-75
2023/05/12 08:25:43;;;;;;;14.73;13.13;;;;;;;12.15;82.19;93142.50;5048415;28;20250;-74
2023/05/12 08:28:10;;;;;;;15.13;13.53;;;;;;;12.04;82.65;93106.22;5049447;28;20207;-74
2023/05/12 08:30:36;;;;;;;13.80;12.70;;;;;;;12.43;81.31;93127.84;5049584;28;20409;-74
2023/05/12 08:33:02;;;;;;;13.77;12.57;;;;;;;12.29;80.10;93117.25;5049336;28;20196;-74
2023/05/12 08:35:29;;;;;;;14.83;13.60;;;;;;;12.46;81.71;93137.78;5062015;28;20244;-75
2023/05/12 08:37:56;;;;;;;15.03;13.77;;;;;;;12.58;81.43;93141.59;5069596;28;20272;-75
2023/05/12 08:40:23;;;;;;;14.30;13.20;;;;;;;12.72;81.22;93158.22;5069713;28;20225;-74
2023/05/12 08:43:01;;;;;;;14.50;13.30;;;;;;;12.84;79.27;93150.75;5069442;28;20194;-74
2023/05/12 08:45:27;;;;;;;13.60;12.43;;;;;;;12.78;77.77;93130.09;5068594;28;20256;-74
2023/05/12 08:47:54;;;;;;;13.20;12.00;;;;;;;12.77;77.85;93154.75;5069927;28;20183;-74
2023/05/12 08:50:21;;;;;;;14.23;12.37;;;;;;;12.81;77.49;93161.00;5068713;28;20238;-74
2023/05/12 08:52:48;;;;;;;12.90;11.90;;;;;;;13.10;77.75;93155.72;5069946;28;20735;-74
2023/05/12 08:55:14;;;;;;;13.13;12.13;;;;;;;13.13;76.94;93150.72;5069063;28;20240;-75
2023/05/12 08:57:44;;;;;;;14.07;12.90;;;;;;;12.89;75.83;93152.53;5068446;28;20213;-75
2023/05/12 09:00:11;;;;;;;13.97;12.57;;;;;;;12.78;78.28;93149.25;5068852;28;20221;-75
2023/05/12 09:02:39;;;;;;;14.10;12.80;;;;;;;12.85;78.35;93151.53;5069777;28;20173;-75
2023/05/12 09:05:04;;;;;;;13.47;12.23;;;;;;;12.66;77.52;93150.69;5068947;28;20715;-75
2023/05/12 09:07:31;;;;;;;14.23;13.00;;;;;;;12.62;78.27;93137.34;5063436;28;20187;-74
2023/05/12 09:09:57;;;;;;;13.50;12.40;;;;;;;12.57;78.92;93154.97;5069383;28;20907;-74
2023/05/12 09:12:25;;;;;;;13.90;12.80;;;;;;;12.72;78.01;93147.72;5069444;28;20197;-72
2023/05/12 09:15:01;;;;;;;13.40;12.40;;;;;;;12.67;77.20;93147.78;5068687;28;20214;-72
2023/05/12 09:17:27;;;;;;;13.07;12.07;;;;;;;12.53;76.86;93141.63;5069813;28;20248;-72
2023/05/12 09:19:52;;;;;;;14.83;13.50;;;;;;;12.40;77.93;93139.69;5068366;28;20229;-72
2023/05/12 09:22:27;;;;;;;13.93;12.63;;;;;;;12.01;78.66;93112.00;5069346;28;20196;-72
2023/05/12 09:24:52;;;;;;;13.53;12.43;;;;;;;12.38;78.54;93143.59;5068887;28;20237;-73
2023/05/12 09:27:26;;;;;;;14.23;12.80;;;;;;;12.43;78.71;93138.34;5069667;28;20196;-71
2023/05/12 09:29:52;;;;;;;13.33;12.23;;;;;;;12.54;77.76;93139.81;5068116;28;20248;-73
2023/05/12 09:32:17;;;;;;;13.47;12.37;;;;;;;12.34;77.67;93121.66;5069329;28;20195;-72
2023/05/12 09:34:43;;;;;;;13.60;12.60;;;;;;;12.52;77.65;93136.66;5068541;28;20233;-72
2023/05/12 09:37:08;;;;;;;13.73;12.73;;;;;;;12.81;77.16;93132.16;5068849;28;20182;-72
2023/05/12 09:39:35;;;;;;;15.13;13.80;;;;;;;13.05;76.95;93125.13;5069171;28;20194;-72
2023/05/12 09:42:00;;;;;;;14.27;12.87;;;;;;;13.32;76.00;93135.03;5069242;28;20190;-72
2023/05/12 09:44:29;;;;;;;14.43;13.20;;;;;;;13.27;75.15;93140.31;5068766;28;20242;-72
2023/05/12 09:46:54;;;;;;;13.80;12.47;;;;;;;13.44;74.82;93138.78;5069077;28;20187;-72
2023/05/12 09:49:22;;;;;;;13.03;12.03;;;;;;;13.14;74.84;93133.91;5068840;28;20201;-73
2023/05/12 09:51:58;;;;;;;14.17;12.97;;;;;;;12.97;75.54;93138.81;5068693;28;20177;-72
2023/05/12 09:54:30;;;;;;;15.17;13.87;;;;;;;13.40;74.69;93137.78;5068973;28;20260;-71
2023/05/12 09:57:01;;;;;;;15.47;13.90;;;;;;;13.46;74.81;93141.91;5071419;28;20207;-73
2023/05/12 09:59:30;;;;;;;14.13;12.93;;;;;;;13.67;73.89;93137.94;5072205;28;20203;-73
2023/05/12 10:01:58;;;;;;;15.43;13.87;;;;;;;13.94;73.50;93135.47;5072317;28;20200;-72
2023/05/12 10:04:24;;;;;;;13.90;12.90;;;;;;;13.86;73.07;93125.59;5072125;28;20201;-72
2023/05/12 10:06:51;;;;;;;14.13;13.03;;;;;;;13.96;73.03;93138.56;5056452;28;20187;-72
2023/05/12 10:09:24;;;;;;;14.10;12.97;;;;;;;14.39;72.23;93131.34;5072703;28;20187;-72
2023/05/12 10:11:50;;;;;;;13.93;12.87;;;;;;;14.58;71.40;93136.53;5072080;28;20201;-73
2023/05/12 10:14:16;;;;;;;14.47;13.27;;;;;;;14.95;68.57;93137.16;5072554;28;20186;-72
2023/05/12 10:16:44;;;;;;;13.93;13.03;;;;;;;14.23;71.65;93130.00;5071231;28;20209;-72
2023/05/12 10:19:10;;;;;;;13.30;12.20;;;;;;;14.67;70.54;93124.28;5072522;28;20267;-72
2023/05/12 10:21:37;;;;;;;14.47;12.83;;;;;;;14.11;71.24;93127.03;5071737;28;20216;-72
2023/05/12 10:24:03;;;;;;;15.40;14.07;;;;;;;14.62;70.56;93127.78;5072453;28;20272;-72
2023/05/12 10:26:30;;;;;;;13.20;12.20;;;;;;;14.84;68.35;93130.53;5071630;28;20213;-72
2023/05/12 10:28:57;;;;;;;14.60;13.50;;;;;;;15.10;66.78;93118.47;5072263;28;20185;-72
2023/05/12 10:31:23;;;;;;;14.37;12.93;;;;;;;14.89;67.94;93130.44;5071639;28;20225;-72
2023/05/12 10:33:56;;;;;;;14.63;13.13;;;;;;;14.89;68.52;93127.03;5072157;28;20186;-72
2023/05/12 10:36:22;;;;;;;13.27;12.37;;;;;;;15.10;66.17;93118.47;5071496;28;20225;-72
2023/05/12 10:38:50;;;;;;;15.63;13.00;;;;;;;15.05;67.49;93115.91;5071744;28;20221;-72
2023/05/12 10:41:16;;;;;;;13.00;12.10;;;;;;;14.97;67.26;93121.88;5072090;28;20236;-72
2023/05/12 10:43:46;;;;;;;15.00;13.80;;;;;;;14.78;68.75;93129.06;5071665;28;20186;-72
2023/05/12 10:46:11;;;;;;;12.83;11.93;;;;;;;15.44;65.93;93124.09;5053923;28;20233;-72
2023/05/12 10:48:55;;;;;;;13.10;12.00;;;;;;;15.64;65.78;93118.41;5071583;28;20193;-72
2023/05/12 10:51:27;;;;;;;14.03;12.80;;;;;;;15.70;65.47;93122.47;5071227;28;20244;-73
2023/05/12 10:53:57;;;;;;;12.73;11.83;;;;;;;15.37;67.35;93123.72;5071522;28;20228;-73
2023/05/12 10:56:25;;;;;;;12.77;11.90;;;;;;;15.45;63.87;93127.53;5071075;28;20243;-72
2023/05/12 10:59:23;;;;;;;13.20;12.30;;;;;;;15.38;65.65;93119.22;5071221;28;20217;-72
2023/05/12 11:02:04;;;;;;;12.90;12.10;;;;;;;15.62;64.33;93127.69;5070795;28;20236;-72
2023/05/12 11:04:54;;;;;;;12.90;12.00;;;;;;;14.89;67.73;93133.06;5071173;28;20189;-72
2023/05/12 11:07:22;;;;;;;13.30;12.20;;;;;;;15.56;65.39;93136.75;5059891;28;20194;-72
2023/05/12 11:09:48;;;;;;;13.03;11.87;;;;;;;15.59;63.99;93136.97;5070879;28;20233;-72
2023/05/12 11:12:14;;;;;;;12.83;11.83;;;;;;;15.35;63.59;93130.31;5071207;28;20225;-70
2023/05/12 11:14:42;;;;;;;12.27;11.13;;;;;;;15.54;65.21;93134.44;5070590;28;20225;-72
2023/05/12 11:17:11;;;;;;;12.50;11.33;;;;;;;15.74;63.07;93133.19;5071312;28;20196;-72